Time;durP1;ratioP1;P1;durP2;ratioP2;P2;SDS_P1;SDS_P2;PMS_P1;PMS_P2;Temp;Humidity;BMP_temperature;BMP_pressure;BME280_temperature;BME280_humidity;BME280_pressure;Samples;Min_cycle;Max_cycle;Signal;HPM_P1;HPM_P2
2023/05/21 00:01:33;;;;;;;27.93;24.77;;;15.80;1.00;;;;;;5062828;28;20188;-54
2023/05/21 00:04:00;;;;;;;25.10;22.40;;;15.70;1.00;;;;;;5068476;28;20233;-53
2023/05/21 00:06:27;;;;;;;30.47;23.93;;;15.60;1.00;;;;;;5063590;28;20274;-55
2023/05/21 00:08:53;;;;;;;27.60;24.23;;;15.70;1.00;;;;;;5065464;28;20438;-52
2023/05/21 00:11:19;;;;;;;27.60;22.43;;;15.70;1.00;;;;;;5071178;28;21013;-53
2023/05/21 00:13:44;;;;;;;26.97;24.00;;;15.70;1.00;;;;;;5074399;28;20188;-55
2023/05/21 00:16:10;;;;;;;25.07;20.90;;;15.70;1.00;;;;;;5065517;28;20235;-55
2023/05/21 00:18:38;;;;;;;26.57;23.70;;;15.60;1.00;;;;;;5063456;28;22376;-55
2023/05/21 00:21:04;;;;;;;27.27;24.33;;;15.60;1.00;;;;;;5065505;28;20214;-53
2023/05/21 00:23:31;;;;;;;27.20;23.43;;;15.60;1.00;;;;;;5058626;28;20478;-54
2023/05/21 00:25:58;;;;;;;27.20;23.10;;;15.60;1.00;;;;;;5077084;28;20454;-54
2023/05/21 00:28:24;;;;;;;29.27;24.13;;;15.60;1.00;;;;;;5066356;28;20458;-52
2023/05/21 00:30:49;;;;;;;26.57;22.87;;;15.60;1.00;;;;;;5064291;28;20442;-53
2023/05/21 00:33:15;;;;;;;28.00;24.23;;;15.60;1.00;;;;;;5065654;28;20220;-55
2023/05/21 00:35:41;;;;;;;26.77;23.87;;;15.60;1.00;;;;;;5063016;28;20453;-53
2023/05/21 00:38:07;;;;;;;25.10;22.40;;;15.50;1.00;;;;;;5065555;28;20202;-54
2023/05/21 00:40:39;;;;;;;27.67;23.73;;;15.50;1.00;;;;;;5067244;28;20275;-51
2023/05/21 00:43:07;;;;;;;26.10;23.30;;;15.50;1.00;;;;;;5077130;28;20454;-53
2023/05/21 00:45:35;;;;;;;26.77;23.13;;;15.50;1.00;;;;;;5062951;28;20448;-55
2023/05/21 00:48:02;;;;;;;27.23;24.30;;;15.50;1.00;;;;;;5065057;28;20477;-51
2023/05/21 00:50:29;;;;;;;27.17;23.20;;;15.40;1.00;;;;;;5062233;28;20465;-52
2023/05/21 00:52:55;;;;;;;30.00;24.00;;;15.40;1.00;;;;;;5069827;28;20807;-53
2023/05/21 00:55:21;;;;;;;48.33;25.63;;;15.40;1.00;;;;;;5065507;28;20542;-56
2023/05/21 00:57:48;;;;;;;29.90;24.90;;;15.40;1.00;;;;;;5062236;28;20548;-52
2023/05/21 01:00:15;;;;;;;26.90;24.00;;;15.30;1.00;;;;;;5064364;28;20202;-52
2023/05/21 01:02:41;;;;;;;24.43;21.93;;;15.40;1.00;;;;;;5059511;28;20417;-54
2023/05/21 01:05:06;;;;;;;25.70;22.90;;;15.30;1.00;;;;;;5063714;28;20469;-54
2023/05/21 01:07:39;;;;;;;29.90;24.30;;;15.40;1.00;;;;;;5063954;28;20180;-52
2023/05/21 01:10:08;;;;;;;27.10;23.50;;;15.50;1.00;;;;;;5060194;28;20993;-53
2023/05/21 01:12:37;;;;;;;28.63;25.10;;;15.60;1.00;;;;;;5064658;28;21014;-55
2023/05/21 01:15:03;;;;;;;27.40;23.90;;;15.50;1.00;;;;;;5058853;28;20533;-54
2023/05/21 01:17:30;;;;;;;28.07;23.73;;;15.40;1.00;;;;;;5065508;28;20539;-51
2023/05/21 01:20:00;;;;;;;26.37;23.47;;;15.40;1.00;;;;;;5070973;28;20996;-54
2023/05/21 01:22:31;;;;;;;28.90;23.87;;;15.30;1.00;;;;;;5070939;28;20535;-52
2023/05/21 01:24:56;;;;;;;26.87;24.00;;;15.30;1.00;;;;;;5070655;28;20434;-53
2023/05/21 01:27:22;;;;;;;27.57;24.07;;;16.20;1.00;;;;;;5064696;28;20523;-55
2023/05/21 01:29:49;;;;;;;29.20;24.27;;;15.30;1.00;;;;;;5063097;28;20227;-53
2023/05/21 01:32:29;;;;;;;30.20;24.67;;;15.40;1.00;;;;;;5068308;28;20248;-52
2023/05/21 01:35:01;;;;;;;24.97;22.37;;;15.30;1.00;;;;;;5066590;28;20450;-55
2023/05/21 01:37:34;;;;;;;26.03;23.23;;;15.40;1.00;;;;;;5061336;28;20484;-54
2023/05/21 01:40:10;;;;;;;25.43;22.73;;;15.40;1.00;;;;;;5055490;28;20476;-53
2023/05/21 01:42:37;;;;;;;27.73;23.90;;;15.50;1.00;;;;;;5066721;28;20507;-54
2023/05/21 01:45:05;;;;;;;32.23;23.93;;;15.50;1.00;;;;;;5059399;28;20460;-52
2023/05/21 01:47:31;;;;;;;27.50;23.00;;;15.40;1.00;;;;;;5061070;28;20927;-52
2023/05/21 01:49:58;;;;;;;28.17;23.73;;;15.50;1.00;;;;;;5063747;28;20458;-52
2023/05/21 01:52:24;;;;;;;32.33;24.73;;;15.40;1.00;;;;;;5061307;28;20442;-56
2023/05/21 01:54:50;;;;;;;26.40;22.80;;;15.30;1.00;;;;;;5066222;28;20823;-51
2023/05/21 01:57:17;;;;;;;28.60;24.10;;;15.30;1.00;;;;;;5063302;28;20474;-54
2023/05/21 01:59:43;;;;;;;26.67;23.37;;;15.20;1.00;;;;;;5058792;28;20193;-53
2023/05/21 02:02:09;;;;;;;25.47;22.57;;;15.10;1.00;;;;;;5063722;28;20947;-55
2023/05/21 02:04:34;;;;;;;27.50;24.23;;;15.10;1.00;;;;;;5071113;28;20784;-53
2023/05/21 02:07:01;;;;;;;27.20;23.03;;;15.00;1.00;;;;;;5064248;28;20844;-53
2023/05/21 02:09:26;;;;;;;27.77;23.70;;;15.00;1.00;;;;;;5061391;28;20599;-55
2023/05/21 02:11:52;;;;;;;24.47;21.50;;;15.00;1.00;;;;;;5062339;28;20454;-53
2023/05/21 02:14:19;;;;;;;25.67;22.90;;;15.00;1.00;;;;;;5067338;28;20188;-55
2023/05/21 02:16:44;;;;;;;27.77;23.90;;;15.00;1.00;;;;;;5060573;28;20566;-53
2023/05/21 02:19:10;;;;;;;26.63;22.70;;;15.00;1.00;;;;;;5065403;28;20499;-52
2023/05/21 02:21:36;;;;;;;26.40;22.87;;;15.00;1.00;;;;;;5059838;28;20237;-53
2023/05/21 02:24:01;;;;;;;27.40;23.27;;;14.90;1.00;;;;;;5055126;28;20960;-55
2023/05/21 02:26:27;;;;;;;25.97;23.17;;;14.90;1.00;;;;;;5064866;28;20223;-54
2023/05/21 02:28:54;;;;;;;29.17;23.30;;;14.80;1.00;;;;;;5058149;28;20494;-53
2023/05/21 02:31:19;;;;;;;29.63;23.60;;;14.80;1.00;;;;;;5068331;28;20211;-53
2023/05/21 02:33:45;;;;;;;26.03;23.23;;;14.80;1.00;;;;;;5060176;28;20951;-54
2023/05/21 02:36:11;;;;;;;27.83;23.93;;;14.80;1.00;;;;;;5063685;28;20191;-53
2023/05/21 02:38:39;;;;;;;27.03;23.33;;;14.90;1.00;;;;;;5057668;28;20226;-55
2023/05/21 02:41:05;;;;;;;29.13;24.30;;;14.90;1.00;;;;;;5065702;28;20449;-51
2023/05/21 02:43:31;;;;;;;27.23;23.10;;;14.90;1.00;;;;;;5057835;28;20621;-53
2023/05/21 02:45:57;;;;;;;26.10;22.67;;;14.80;1.00;;;;;;5072102;28;20523;-53
2023/05/21 02:48:22;;;;;;;26.17;23.30;;;14.80;1.00;;;;;;5058015;28;20183;-55
2023/05/21 02:50:48;;;;;;;29.13;23.33;;;14.80;1.00;;;;;;5064114;28;20187;-53
2023/05/21 02:53:13;;;;;;;25.40;21.87;;;14.80;1.00;;;;;;5062096;28;20283;-55
2023/05/21 02:55:40;;;;;;;25.83;23.10;;;14.70;1.00;;;;;;5058567;28;20271;-52
2023/05/21 02:58:06;;;;;;;26.43;23.20;;;14.60;1.00;;;;;;5060261;28;20326;-54
2023/05/21 03:00:32;;;;;;;25.20;22.50;;;14.60;1.00;;;;;;5063817;28;20447;-51
2023/05/21 03:02:57;;;;;;;25.80;21.53;;;14.60;1.00;;;;;;5063182;28;20233;-51
2023/05/21 03:05:23;;;;;;;27.40;22.37;;;14.60;1.00;;;;;;5066700;28;20650;-53
2023/05/21 03:07:49;;;;;;;26.43;23.10;;;14.50;1.00;;;;;;5065161;28;20184;-54
2023/05/21 03:10:15;;;;;;;27.43;21.67;;;14.50;1.00;;;;;;5065627;28;20195;-53
2023/05/21 03:12:41;;;;;;;28.10;23.77;;;14.50;1.00;;;;;;5060379;28;20454;-52
2023/05/21 03:15:07;;;;;;;25.67;22.83;;;14.40;1.00;;;;;;5059055;28;20200;-53
2023/05/21 03:17:32;;;;;;;26.87;23.80;;;14.40;1.00;;;;;;5057287;28;20334;-54
2023/05/21 03:19:58;;;;;;;26.90;24.03;;;14.50;1.00;;;;;;5061363;28;20489;-54
2023/05/21 03:22:24;;;;;;;26.13;23.10;;;14.60;1.00;;;;;;5061155;28;20196;-52
2023/05/21 03:24:49;;;;;;;27.60;24.50;;;14.60;1.00;;;;;;5058294;28;20192;-54
2023/05/21 03:27:15;;;;;;;25.47;22.70;;;14.60;1.00;;;;;;5060601;28;20199;-53
2023/05/21 03:29:41;;;;;;;25.67;22.50;;;14.60;1.00;;;;;;5054492;28;20278;-54
2023/05/21 03:32:07;;;;;;;27.20;22.70;;;14.60;1.00;;;;;;5057033;28;20385;-54
2023/05/21 03:34:33;;;;;;;27.13;22.90;;;14.60;1.00;;;;;;5062492;28;20446;-54
2023/05/21 03:36:59;;;;;;;26.83;24.10;;;14.70;1.00;;;;;;5059427;28;20949;-52
2023/05/21 03:39:24;;;;;;;29.27;22.57;;;14.70;1.00;;;;;;5061413;28;20238;-52
2023/05/21 03:41:50;;;;;;;27.50;23.33;;;14.70;1.00;;;;;;5060302;28;20939;-54
2023/05/21 03:44:16;;;;;;;26.83;22.87;;;14.70;1.00;;;;;;5060817;28;20453;-53
2023/05/21 03:46:43;;;;;;;27.43;23.17;;;14.70;1.00;;;;;;5061509;28;20190;-56
2023/05/21 03:49:09;;;;;;;25.60;22.93;;;14.80;1.00;;;;;;5056353;28;20224;-54
2023/05/21 03:51:37;;;;;;;27.93;23.07;;;14.80;1.00;;;;;;5059691;28;20775;-55
2023/05/21 03:54:02;;;;;;;26.17;23.37;;;14.90;1.00;;;;;;5062883;28;20568;-53
2023/05/21 03:56:28;;;;;;;25.80;22.93;;;15.00;1.00;;;;;;5065618;28;20902;-52
2023/05/21 03:58:54;;;;;;;24.73;22.00;;;15.00;1.00;;;;;;5064335;28;20207;-52
2023/05/21 04:01:19;;;;;;;28.27;24.13;;;15.10;1.00;;;;;;5060547;28;20220;-52
2023/05/21 04:03:45;;;;;;;27.23;23.33;;;15.10;1.00;;;;;;5064121;28;20199;-52
2023/05/21 04:06:11;;;;;;;27.43;24.53;;;15.10;1.00;;;;;;5065048;28;20192;-55
2023/05/21 04:08:36;;;;;;;25.03;21.20;;;15.10;1.00;;;;;;5060727;28;20195;-54
2023/05/21 04:11:02;;;;;;;31.47;23.67;;;15.20;1.00;;;;;;5064302;28;20212;-54
2023/05/21 04:13:28;;;;;;;27.47;23.40;;;15.30;1.00;;;;;;5064787;28;20202;-52
2023/05/21 04:15:54;;;;;;;26.10;23.30;;;15.30;1.00;;;;;;5057199;28;20191;-52
2023/05/21 04:18:22;;;;;;;25.80;22.87;;;15.30;1.00;;;;;;5063292;28;20219;-54
2023/05/21 04:20:48;;;;;;;26.63;23.73;;;15.40;1.00;;;;;;5070122;28;20450;-53
2023/05/21 04:23:14;;;;;;;26.60;22.00;;;15.50;1.00;;;;;;5056725;28;20799;-54
2023/05/21 04:25:40;;;;;;;27.73;23.40;;;15.60;1.00;;;;;;5060498;28;20491;-56
2023/05/21 04:28:06;;;;;;;27.50;23.90;;;15.60;1.00;;;;;;5066030;28;20453;-52
2023/05/21 04:30:34;;;;;;;26.10;23.03;;;15.70;1.00;;;;;;5057745;28;20211;-52
2023/05/21 04:33:00;;;;;;;24.07;21.63;;;15.80;1.00;;;;;;5063340;28;20180;-53
2023/05/21 04:35:26;;;;;;;25.93;23.23;;;15.80;1.00;;;;;;5062307;28;20620;-53
2023/05/21 04:37:53;;;;;;;25.33;22.63;;;15.90;1.00;;;;;;5063433;28;21152;-53
2023/05/21 04:40:23;;;;;;;25.73;23.00;;;16.00;1.00;;;;;;5066340;28;20274;-53
2023/05/21 04:42:50;;;;;;;25.13;22.43;;;16.10;1.00;;;;;;5063456;28;20556;-51
2023/05/21 04:45:19;;;;;;;27.17;23.00;;;16.20;1.00;;;;;;5063150;28;20969;-54
2023/05/21 04:47:46;;;;;;;24.27;21.80;;;16.30;1.00;;;;;;5061466;28;22242;-54
2023/05/21 04:50:12;;;;;;;25.10;22.37;;;16.30;1.00;;;;;;5070152;28;20570;-54
2023/05/21 04:52:39;;;;;;;25.17;21.10;;;16.40;1.00;;;;;;5065757;28;20578;-53
2023/05/21 04:55:05;;;;;;;24.93;22.13;;;16.50;1.00;;;;;;5069968;28;20200;-53
2023/05/21 04:57:31;;;;;;;24.57;21.93;;;16.60;1.00;;;;;;5062252;28;20543;-55
2023/05/21 04:59:57;;;;;;;24.53;21.43;;;16.90;1.00;;;;;;5066635;28;20616;-53
2023/05/21 05:02:22;;;;;;;23.00;20.70;;;17.10;1.00;;;;;;5064641;28;20192;-54
2023/05/21 05:04:48;;;;;;;26.30;23.50;;;17.20;1.00;;;;;;5063407;28;20187;-55
2023/05/21 05:07:14;;;;;;;24.00;21.50;;;17.40;1.00;;;;;;5068113;28;20191;-53
2023/05/21 05:09:40;;;;;;;23.43;21.10;;;17.50;1.00;;;;;;5064081;28;20184;-54
2023/05/21 05:12:05;;;;;;;25.23;22.57;;;17.70;1.00;;;;;;5067563;28;20454;-54
2023/05/21 05:14:31;;;;;;;24.97;22.37;;;17.80;1.00;;;;;;5066349;28;20229;-52
2023/05/21 05:17:00;;;;;;;24.70;22.17;;;17.90;1.00;;;;;;5062471;28;20469;-52
2023/05/21 05:19:26;;;;;;;25.10;21.97;;;18.10;1.00;;;;;;5068086;28;20180;-53
2023/05/21 05:21:53;;;;;;;26.53;22.30;;;18.30;1.00;;;;;;5066194;28;20446;-54
2023/05/21 05:24:18;;;;;;;24.70;22.30;;;18.60;1.00;;;;;;5067057;28;20207;-55
2023/05/21 05:26:44;;;;;;;23.10;20.77;;;18.90;1.00;;;;;;5067668;28;20442;-51
2023/05/21 05:29:10;;;;;;;24.83;22.33;;;19.20;1.00;;;;;;5070977;28;20200;-55
2023/05/21 05:31:36;;;;;;;22.53;20.23;;;19.40;1.00;;;;;;5063666;28;20219;-53
2023/05/21 05:34:01;;;;;;;22.23;20.00;;;19.50;1.00;;;;;;5064098;28;20570;-53
2023/05/21 05:36:27;;;;;;;23.20;20.90;;;19.70;1.00;;;;;;5065781;28;20203;-53
2023/05/21 05:38:52;;;;;;;22.17;20.17;;;19.70;1.00;;;;;;5066590;28;20707;-55
2023/05/21 05:41:18;;;;;;;22.03;20.00;;;19.70;1.00;;;;;;5062212;28;20314;-53
2023/05/21 05:43:43;;;;;;;23.00;20.77;;;18.70;1.00;;;;;;5063735;28;20196;-53
2023/05/21 05:46:09;;;;;;;23.07;20.87;;;19.80;1.00;;;;;;5061336;28;20968;-53
2023/05/21 05:48:35;;;;;;;22.43;20.13;;;19.90;1.00;;;;;;5068659;28;20432;-54
2023/05/21 05:51:00;;;;;;;21.70;19.57;;;20.10;1.00;;;;;;5064459;28;20684;-52
2023/05/21 05:53:26;;;;;;;21.17;19.17;;;20.20;1.00;;;;;;5064865;28;20188;-53
2023/05/21 05:55:51;;;;;;;22.63;20.40;;;20.40;1.00;;;;;;5063238;28;20192;-54
2023/05/21 05:58:17;;;;;;;22.50;20.40;;;20.40;1.00;;;;;;5066363;28;20215;-53
2023/05/21 06:00:43;;;;;;;21.47;19.40;;;20.60;1.00;;;;;;5061065;28;20199;-54
2023/05/21 06:03:08;;;;;;;22.63;20.50;;;20.80;1.00;;;;;;5061558;28;20268;-53
2023/05/21 06:05:34;;;;;;;20.17;18.17;;;20.90;1.00;;;;;;5063535;28;20209;-55
2023/05/21 06:08:00;;;;;;;21.30;19.20;;;21.20;1.00;;;;;;5059905;28;20181;-53
2023/05/21 06:10:26;;;;;;;20.73;18.80;;;21.50;1.00;;;;;;5060376;28;20226;-53
2023/05/21 06:12:51;;;;;;;20.93;18.97;;;21.70;1.00;;;;;;5059382;28;21033;-55
2023/05/21 06:15:18;;;;;;;20.57;18.77;;;22.00;1.00;;;;;;5057304;28;20197;-55
2023/05/21 06:17:43;;;;;;;21.47;19.43;;;22.10;1.00;;;;;;5062439;28;20207;-52
2023/05/21 06:20:10;;;;;;;20.57;18.67;;;22.20;1.00;;;;;;5060605;28;20424;-53
2023/05/21 06:22:36;;;;;;;22.13;20.03;;;22.40;1.00;;;;;;5062019;28;20206;-54
2023/05/21 06:25:02;;;;;;;19.43;17.70;;;22.50;99.90;;;;;;5063040;28;20420;-53
2023/05/21 06:27:27;;;;;;;20.00;17.90;;;22.60;99.90;;;;;;5067208;28;20203;-52
2023/05/21 06:29:53;;;;;;;19.70;17.83;;;22.70;99.90;;;;;;5063217;28;20462;-52
2023/05/21 06:32:20;;;;;;;20.93;18.93;;;22.80;99.90;;;;;;5062295;28;20203;-53
2023/05/21 06:34:45;;;;;;;20.67;18.70;;;22.90;99.90;;;;;;5064769;28;20180;-53
2023/05/21 06:37:11;;;;;;;19.20;17.30;;;22.90;99.90;;;;;;5073928;28;20485;-55
2023/05/21 06:39:37;;;;;;;22.57;20.13;;;22.90;99.90;;;;;;5067397;28;20217;-52
2023/05/21 06:42:02;;;;;;;18.67;17.03;;;22.80;99.90;;;;;;5065379;28;20192;-54
2023/05/21 06:44:28;;;;;;;19.90;17.83;;;22.80;99.90;;;;;;5066343;28;20191;-54
2023/05/21 06:46:54;;;;;;;20.40;18.27;;;22.80;99.90;;;;;;5066145;28;20513;-53
2023/05/21 06:49:19;;;;;;;19.87;17.87;;;22.80;99.90;;;;;;5067566;28;20188;-54
2023/05/21 06:51:45;;;;;;;19.33;17.43;;;22.80;99.90;;;;;;5067559;28;20189;-54
2023/05/21 06:54:12;;;;;;;21.37;19.27;;;22.80;99.90;;;;;;5063773;28;20196;-53
2023/05/21 06:56:37;;;;;;;18.97;17.10;;;22.90;99.90;;;;;;5066913;28;20321;-52
2023/05/21 06:59:03;;;;;;;19.53;17.73;;;23.00;99.90;;;;;;5064014;28;20455;-53
2023/05/21 07:01:29;;;;;;;18.37;16.67;;;23.20;99.90;;;;;;5063956;28;20190;-55
2023/05/21 07:03:55;;;;;;;18.83;16.83;;;23.30;99.90;;;;;;5062184;28;20223;-54
2023/05/21 07:06:21;;;;;;;19.70;17.63;;;23.40;99.90;;;;;;5064067;28;20459;-55
2023/05/21 07:08:48;;;;;;;19.33;17.47;;;23.40;99.90;;;;;;5065697;28;20199;-53
2023/05/21 07:11:14;;;;;;;18.40;16.73;;;23.30;99.90;;;;;;5065579;28;20484;-54
2023/05/21 07:13:39;;;;;;;21.23;18.17;;;23.30;99.90;;;;;;5065600;28;20460;-53
2023/05/21 07:16:05;;;;;;;19.23;17.50;;;23.20;99.90;;;;;;5061073;28;20299;-53
2023/05/21 07:18:31;;;;;;;19.30;17.30;;;23.30;99.90;;;;;;5064458;28;20266;-52
2023/05/21 07:20:57;;;;;;;19.50;17.60;;;23.40;99.90;;;;;;5061651;28;20825;-53
2023/05/21 07:23:23;;;;;;;18.63;16.80;;;23.50;99.90;;;;;;5063061;28;20254;-54
2023/05/21 07:25:49;;;;;;;17.93;16.40;;;23.50;99.90;;;;;;5063387;28;20210;-53
2023/05/21 07:28:14;;;;;;;17.90;16.30;;;23.60;99.90;;;;;;5067575;28;20900;-55
2023/05/21 07:30:40;;;;;;;18.50;16.80;;;23.80;99.90;;;;;;5060892;28;20749;-54
2023/05/21 07:33:05;;;;;;;19.80;17.97;;;23.80;99.90;;;;;;5068266;28;20300;-54
2023/05/21 07:35:31;;;;;;;17.53;15.83;;;23.80;99.90;;;;;;5061901;28;20242;-53
2023/05/21 07:37:56;;;;;;;18.43;16.73;;;23.80;99.90;;;;;;5066967;28;20739;-54
2023/05/21 07:40:22;;;;;;;20.10;18.03;;;24.00;99.90;;;;;;5066280;28;20234;-54
2023/05/21 07:42:48;;;;;;;17.90;16.20;;;24.20;99.90;;;;;;5070117;28;20180;-54
2023/05/21 07:45:13;;;;;;;18.07;16.47;;;24.30;99.90;;;;;;5066850;28;20215;-54
2023/05/21 07:47:39;;;;;;;18.60;16.80;;;24.30;99.90;;;;;;5071295;28;20184;-52
2023/05/21 07:50:05;;;;;;;18.03;16.43;;;24.50;99.90;;;;;;5074359;28;20191;-55
2023/05/21 07:52:31;;;;;;;19.47;17.17;;;24.40;99.90;;;;;;5077864;28;20794;-55
2023/05/21 07:54:56;;;;;;;19.67;17.60;;;24.50;99.90;;;;;;5059871;28;20955;-54
2023/05/21 07:57:22;;;;;;;18.53;16.73;;;24.60;99.90;;;;;;5071191;28;20228;-53
2023/05/21 07:59:48;;;;;;;17.67;16.07;;;24.90;99.90;;;;;;5068389;28;20668;-52
2023/05/21 08:02:13;;;;;;;19.03;17.33;;;25.00;99.90;;;;;;5069529;28;20495;-53
2023/05/21 08:04:39;;;;;;;17.87;16.20;;;25.20;99.90;;;;;;5063626;28;20182;-54
2023/05/21 08:07:05;;;;;;;17.90;16.20;;;25.50;99.90;;;;;;5065147;28;20663;-54
2023/05/21 08:09:31;;;;;;;18.67;16.97;;;25.60;99.90;;;;;;5062363;28;20214;-55
2023/05/21 08:11:56;;;;;;;18.10;16.60;;;25.50;99.90;;;;;;5068771;28;20179;-53
2023/05/21 08:14:22;;;;;;;18.47;16.60;;;25.30;99.90;;;;;;5063883;28;20956;-52
2023/05/21 08:16:48;;;;;;;17.73;16.17;;;25.00;99.90;;;;;;5079315;28;20203;-53
2023/05/21 08:19:13;;;;;;;16.10;14.70;;;24.90;99.90;;;;;;5066534;28;20558;-54
2023/05/21 08:21:39;;;;;;;18.00;16.47;;;24.90;99.90;;;;;;5068061;28;20193;-54
2023/05/21 08:24:06;;;;;;;17.70;16.10;;;24.90;99.90;;;;;;5071943;28;20280;-55
2023/05/21 08:26:31;;;;;;;18.47;16.87;;;25.00;99.90;;;;;;5070661;28;20185;-54
2023/05/21 08:28:58;;;;;;;18.50;16.80;;;25.00;99.90;;;;;;5072339;28;20447;-53
2023/05/21 08:31:23;;;;;;;19.57;17.87;;;25.10;99.90;;;;;;5071385;28;20545;-54
2023/05/21 08:33:50;;;;;;;17.97;16.20;;;25.20;99.90;;;;;;5081335;28;20443;-55
2023/05/21 08:36:16;;;;;;;18.07;16.43;;;25.30;99.90;;;;;;5084617;28;20717;-54
2023/05/21 08:38:42;;;;;;;17.70;16.10;;;25.40;99.90;;;;;;5065101;28;20503;-56
2023/05/21 08:41:09;;;;;;;17.80;16.20;;;25.50;99.90;;;;;;5059632;28;20559;-54
2023/05/21 08:43:37;;;;;;;18.03;16.40;;;25.60;99.90;;;;;;5069975;28;20185;-54
2023/05/21 08:46:07;;;;;;;17.73;16.03;;;25.90;99.90;;;;;;5070131;28;20904;-55
2023/05/21 08:48:35;;;;;;;19.27;15.23;;;26.30;99.90;;;;;;5066646;28;20935;-54
2023/05/21 08:51:01;;;;;;;16.87;15.43;;;26.50;99.90;;;;;;5068535;28;20424;-54
2023/05/21 08:53:27;;;;;;;17.60;16.03;;;26.40;99.90;;;;;;5068668;28;20510;-54
2023/05/21 08:55:54;;;;;;;17.77;15.90;;;26.40;99.90;;;;;;5071242;28;20268;-54
2023/05/21 08:58:20;;;;;;;16.17;14.77;;;26.20;99.90;;;;;;5083961;28;20728;-53
2023/05/21 09:00:46;;;;;;;17.80;16.10;;;26.10;99.90;;;;;;5066513;28;20927;-54
2023/05/21 09:03:13;;;;;;;17.17;15.47;;;26.00;99.90;;;;;;5069940;28;20427;-53
2023/05/21 09:05:44;;;;;;;17.03;15.53;;;26.00;99.90;;;;;;5066306;28;20653;-54
2023/05/21 09:08:18;;;;;;;16.17;14.77;;;26.00;99.90;;;;;;5069018;28;20531;-54
2023/05/21 09:10:51;;;;;;;18.03;16.43;;;25.90;99.90;;;;;;5066404;28;20413;-54
2023/05/21 09:13:18;;;;;;;16.47;14.87;;;25.90;99.90;;;;;;5068047;28;20455;-52
2023/05/21 09:15:44;;;;;;;17.10;15.50;;;26.00;99.90;;;;;;5082322;28;20984;-53
2023/05/21 09:18:11;;;;;;;16.77;15.27;;;26.00;99.90;;;;;;5069385;28;20461;-53
2023/05/21 09:20:36;;;;;;;16.47;14.97;;;26.00;99.90;;;;;;5065510;28;20455;-52
2023/05/21 09:23:05;;;;;;;17.33;15.43;;;26.20;99.90;;;;;;5067995;28;20422;-54
2023/05/21 09:25:31;;;;;;;16.87;15.27;;;26.30;99.90;;;;;;5061074;28;20635;-55
2023/05/21 09:27:58;;;;;;;16.00;14.43;;;26.60;99.90;;;;;;5074091;28;20761;-54
2023/05/21 09:30:24;;;;;;;16.87;15.17;;;26.80;99.90;;;;;;5071098;28;20454;-54
2023/05/21 09:32:56;;;;;;;15.83;14.43;;;26.90;99.90;;;;;;5081065;28;21035;-54
2023/05/21 09:35:23;;;;;;;15.40;14.10;;;26.90;99.90;;;;;;5069511;28;20984;-56
2023/05/21 09:37:52;;;;;;;14.90;13.70;;;26.90;99.90;;;;;;5068396;28;20446;-54
2023/05/21 09:40:22;;;;;;;16.00;14.50;;;26.90;99.90;;;;;;5071463;28;20446;-54
2023/05/21 09:42:50;;;;;;;15.20;13.87;;;27.10;99.90;;;;;;5082598;28;20521;-53
2023/05/21 09:45:20;;;;;;;14.67;13.37;;;27.00;99.90;;;;;;5076160;28;20456;-53
2023/05/21 09:47:47;;;;;;;17.17;15.67;;;27.20;99.90;;;;;;5067140;28;20968;-54
2023/05/21 09:50:16;;;;;;;15.37;13.93;;;27.20;99.90;;;;;;5079251;28;20451;-54
2023/05/21 09:52:42;;;;;;;17.30;15.70;;;27.10;99.90;;;;;;5068768;28;20416;-54
2023/05/21 09:55:12;;;;;;;17.57;15.93;;;27.00;99.90;;;;;;5078057;28;20443;-53
2023/05/21 09:57:45;;;;;;;16.33;14.93;;;27.10;99.90;;;;;;5067106;28;20248;-53
2023/05/21 10:00:17;;;;;;;16.03;14.63;;;27.10;99.90;;;;;;5067999;28;20437;-55
2023/05/21 10:02:46;;;;;;;15.03;13.73;;;27.00;99.90;;;;;;5068059;28;20445;-54
2023/05/21 10:05:13;;;;;;;15.70;14.30;;;27.00;99.90;;;;;;5068626;28;20450;-54
2023/05/21 10:07:47;;;;;;;16.37;14.80;;;27.00;99.90;;;;;;5067421;28;20796;-52
2023/05/21 10:10:13;;;;;;;15.57;14.07;;;27.00;99.90;;;;;;5064713;28;20445;-53
2023/05/21 10:12:43;;;;;;;16.00;14.40;;;27.10;99.90;;;;;;5066338;28;20476;-54
2023/05/21 10:15:15;;;;;;;15.00;13.80;;;27.20;99.90;;;;;;5069959;28;20455;-54
2023/05/21 10:17:43;;;;;;;16.83;15.23;;;27.30;99.90;;;;;;5069329;28;20477;-54
2023/05/21 10:20:10;;;;;;;15.10;13.70;;;27.40;99.90;;;;;;5071619;28;20442;-54
2023/05/21 10:22:36;;;;;;;15.27;13.90;;;27.20;99.90;;;;;;5069946;28;20449;-52
2023/05/21 10:25:04;;;;;;;14.47;13.03;;;27.00;99.90;;;;;;5083139;28;20432;-54
2023/05/21 10:27:31;;;;;;;18.07;16.47;;;27.20;99.90;;;;;;5069260;28;20455;-53
2023/05/21 10:29:58;;;;;;;15.37;14.07;;;27.40;99.90;;;;;;5066969;28;20441;-54
2023/05/21 10:32:26;;;;;;;15.07;13.67;;;27.40;99.90;;;;;;5063902;28;20443;-53
2023/05/21 10:34:56;;;;;;;15.13;13.83;;;27.70;99.90;;;;;;5066475;28;20583;-54
2023/05/21 10:37:26;;;;;;;14.50;13.20;;;27.90;99.90;;;;;;5073982;28;20524;-55
2023/05/21 10:39:52;;;;;;;16.33;14.90;;;27.90;99.90;;;;;;5076899;28;20444;-54
2023/05/21 10:42:20;;;;;;;17.17;15.50;;;28.10;99.90;;;;;;5061071;28;20448;-53
2023/05/21 10:44:48;;;;;;;16.03;14.70;;;28.20;99.90;;;;;;5081383;28;20427;-54
2023/05/21 10:47:28;;;;;;;14.33;13.17;;;28.00;99.90;;;;;;5077924;28;20423;-53
2023/05/21 10:50:12;;;;;;;14.10;12.83;;;27.50;99.90;;;;;;5064227;28;20445;-53
2023/05/21 10:53:06;;;;;;;14.23;13.03;;;26.60;99.90;;;;;;5060561;28;20417;-52
2023/05/21 10:56:05;;;;;;;12.30;11.30;;;26.00;99.90;;;;;;5067060;28;20461;-55
2023/05/21 10:58:49;;;;;;;12.37;11.13;;;26.20;99.90;;;;;;5070702;28;20491;-53
2023/05/21 11:01:18;;;;;;;11.50;10.50;;;26.60;99.90;;;;;;5067323;28;20955;-55
2023/05/21 11:03:45;;;;;;;12.23;11.20;;;27.00;99.90;;;;;;5077442;28;20427;-53
2023/05/21 11:06:25;;;;;;;10.67;9.67;;;27.10;99.90;;;;;;5074569;28;20773;-54
2023/05/21 11:08:52;;;;;;;10.67;9.70;;;27.10;99.90;;;;;;5082673;28;20403;-53
2023/05/21 11:11:51;;;;;;;10.20;9.30;;;27.30;99.90;;;;;;5080414;28;20434;-53
2023/05/21 11:14:37;;;;;;;10.10;9.20;;;27.60;99.90;;;;;;5056664;28;20439;-53
2023/05/21 11:17:34;;;;;;;10.93;10.00;;;28.00;99.90;;;;;;5087567;28;20440;-52
2023/05/21 11:20:06;;;;;;;9.50;8.70;;;28.40;99.90;;;;;;5070615;28;20405;-55
2023/05/21 11:22:34;;;;;;;9.40;8.60;;;28.60;99.90;;;;;;5076070;28;20451;-54
2023/05/21 11:25:01;;;;;;;8.87;8.17;;;28.80;99.90;;;;;;5074844;28;20481;-54
2023/05/21 11:27:38;;;;;;;9.40;8.53;;;28.80;99.90;;;;;;5085127;28;20432;-55
2023/05/21 11:30:08;;;;;;;8.73;8.07;;;28.50;99.90;;;;;;5075777;28;20417;-53
2023/05/21 11:33:06;;;;;;;9.13;8.43;;;28.50;99.90;;;;;;5091219;28;21003;-53
2023/05/21 11:35:55;;;;;;;9.70;8.90;;;28.40;99.90;;;;;;5092059;28;20788;-52
2023/05/21 11:38:21;;;;;;;11.03;9.93;;;28.70;99.90;;;;;;5081307;28;20470;-53
2023/05/21 11:40:53;;;;;;;11.70;10.67;;;29.30;99.90;;;;;;5083751;28;20529;-54
2023/05/21 11:43:19;;;;;;;10.70;9.90;;;29.90;99.90;;;;;;5091637;28;20177;-54
2023/05/21 11:45:46;;;;;;;11.00;9.93;;;30.20;99.90;;;;;;5082004;28;21076;-52
2023/05/21 11:48:15;;;;;;;10.37;9.47;;;30.00;99.90;;;;;;5073647;28;20257;-53
2023/05/21 11:50:41;;;;;;;10.63;9.53;;;29.50;99.90;;;;;;5084159;28;20461;-54
2023/05/21 11:53:07;;;;;;;10.70;9.30;;;28.90;99.90;;;;;;5088133;28;21027;-53
2023/05/21 11:55:37;;;;;;;10.47;9.57;;;28.30;99.90;;;;;;5081770;28;20742;-54
2023/05/21 11:58:04;;;;;;;10.20;9.40;;;28.20;99.90;;;;;;5091448;28;20995;-54
2023/05/21 12:00:30;;;;;;;10.63;9.63;;;28.10;99.90;;;;;;5076810;28;20444;-53
2023/05/21 12:02:57;;;;;;;10.43;9.53;;;28.00;99.90;;;;;;5081470;28;20963;-54
2023/05/21 12:05:23;;;;;;;10.73;9.83;;;28.00;99.90;;;;;;5069429;28;20514;-54
2023/05/21 12:07:49;;;;;;;11.90;10.90;;;28.00;99.90;;;;;;5086528;28;20451;-53
2023/05/21 12:10:15;;;;;;;12.60;11.50;;;27.80;99.90;;;;;;5076570;28;20207;-52
2023/05/21 12:12:41;;;;;;;12.17;11.07;;;27.90;99.90;;;;;;5086437;28;20442;-54
2023/05/21 12:15:08;;;;;;;12.93;11.83;;;27.90;99.90;;;;;;5086371;28;20471;-54
2023/05/21 12:17:34;;;;;;;12.77;11.63;;;27.70;99.90;;;;;;5085873;28;20213;-54
2023/05/21 12:20:01;;;;;;;13.17;11.93;;;27.40;99.90;;;;;;5088584;28;20442;-53
2023/05/21 12:22:29;;;;;;;13.60;12.30;;;27.20;99.90;;;;;;5077943;28;20666;-53
2023/05/21 12:24:57;;;;;;;13.93;12.67;;;27.30;99.90;;;;;;5091204;28;20476;-53
2023/05/21 12:27:23;;;;;;;13.10;11.97;;;27.50;99.90;;;;;;5075484;28;20470;-52
2023/05/21 12:29:52;;;;;;;12.73;11.63;;;27.50;99.90;;;;;;5080587;28;20464;-52
2023/05/21 12:32:20;;;;;;;13.73;12.43;;;27.60;99.90;;;;;;5091121;28;20416;-54
2023/05/21 12:34:48;;;;;;;15.37;13.83;;;27.60;99.90;;;;;;5085156;28;20427;-54